createdAt,value
2019-01-12T00:00:20.873Z,5.65
2019-01-12T00:01:32.126Z,5.67
2019-01-12T00:02:41.576Z,5.7
2019-01-12T00:03:51.535Z,5.73
2019-01-12T00:05:01.475Z,5.7
2019-01-12T00:06:11.164Z,5.69
2019-01-12T00:07:20.850Z,5.74
2019-01-12T00:08:30.545Z,5.67
2019-01-12T00:09:40.241Z,5.62
2019-01-12T00:10:49.936Z,5.76
2019-01-12T00:11:59.908Z,5.72
2019-01-12T00:13:09.711Z,5.76
2019-01-12T00:14:19.668Z,5.61
2019-01-12T00:15:29.613Z,5.67
2019-01-12T00:16:39.317Z,5.67
2019-01-12T00:17:49.267Z,5.65
2019-01-12T00:18:59.197Z,5.73
2019-01-12T00:20:08.888Z,5.7
2019-01-12T00:21:18.830Z,5.7
2019-01-12T00:22:28.522Z,5.67
2019-01-12T00:23:38.462Z,5.62
2019-01-12T00:24:48.395Z,5.59
2019-01-12T00:25:58.343Z,5.58
2019-01-12T00:27:08.093Z,5.62
2019-01-12T00:28:18.026Z,5.52
2019-01-12T00:29:27.977Z,5.61
2019-01-12T00:30:37.925Z,5.52
2019-01-12T00:31:47.882Z,5.62
2019-01-12T00:32:57.575Z,5.59
2019-01-12T00:34:07.569Z,5.56
2019-01-12T00:35:16.765Z,5.56
2019-01-12T00:36:26.717Z,5.62
2019-01-12T00:37:36.661Z,5.61
2019-01-12T00:38:46.614Z,5.56
2019-01-12T00:39:56.547Z,5.56
2019-01-12T00:41:06.241Z,5.56
2019-01-12T00:42:15.929Z,5.61
2019-01-12T00:43:25.882Z,5.61
2019-01-12T00:44:35.840Z,5.56
2019-01-12T00:45:45.281Z,5.58
2019-01-12T00:46:55.030Z,5.58
2019-01-12T00:48:04.987Z,5.58
2019-01-12T00:49:14.921Z,5.62
2019-01-12T00:50:24.602Z,5.51
2019-01-12T00:51:34.557Z,5.52
2019-01-12T00:52:44.250Z,5.51
2019-01-12T00:53:54.204Z,5.54
2019-01-12T00:55:03.898Z,5.52
2019-01-12T00:56:13.338Z,5.55
2019-01-12T00:57:23.272Z,5.55
2019-01-12T00:58:33.213Z,5.49
2019-01-12T00:59:43.335Z,5.49
2019-01-12T01:00:53.281Z,5.51
2019-01-12T01:02:02.718Z,5.46
2019-01-12T01:03:12.420Z,5.4
2019-01-12T01:04:22.113Z,5.41
2019-01-12T01:05:32.435Z,5.41
2019-01-12T01:06:42.383Z,5.47
2019-01-12T01:07:52.072Z,5.44
2019-01-12T01:09:02.021Z,5.46
2019-01-12T01:10:11.963Z,5.46
2019-01-12T01:11:21.911Z,5.43
2019-01-12T01:12:32.365Z,5.4
2019-01-12T01:13:42.319Z,5.44
2019-01-12T01:14:52.259Z,5.43
2019-01-12T01:16:01.702Z,5.38
2019-01-12T01:17:11.399Z,5.41
2019-01-12T01:18:20.837Z,5.37
2019-01-12T01:19:30.776Z,5.44
2019-01-12T01:20:40.451Z,5.34
2019-01-12T01:21:50.145Z,5.36
2019-01-12T01:23:00.083Z,5.28
2019-01-12T01:24:09.785Z,5.29
2019-01-12T01:25:19.477Z,5.37
2019-01-12T01:26:29.415Z,5.38
2019-01-12T01:27:39.362Z,5.38
2019-01-12T01:28:49.072Z,5.34
2019-01-12T01:29:58.762Z,5.36
2019-01-12T01:31:08.691Z,5.34
2019-01-12T01:32:18.390Z,5.38
2019-01-12T01:33:32.536Z,5.31
2019-01-12T01:34:42.484Z,5.33
2019-01-12T01:35:52.452Z,5.34
2019-01-12T01:37:01.889Z,5.26
2019-01-12T01:38:11.811Z,5.31
2019-01-12T01:39:21.753Z,5.25
2019-01-12T01:40:31.235Z,5.18
2019-01-12T01:41:41.189Z,5.28
2019-01-12T01:42:51.110Z,5.2
2019-01-12T01:44:01.059Z,5.16
2019-01-12T01:45:10.987Z,5.22
2019-01-12T01:46:20.420Z,5.2
2019-01-12T01:47:30.367Z,5.22
2019-01-12T01:48:40.309Z,5.23
2019-01-12T01:49:49.999Z,5.25
2019-01-12T01:50:59.698Z,5.26
2019-01-12T01:52:09.400Z,5.25
2019-01-12T01:53:19.080Z,5.23
2019-01-12T01:54:28.762Z,5.19
2019-01-12T01:55:38.193Z,5.15
2019-01-12T01:56:48.115Z,5.28
2019-01-12T01:57:57.852Z,5.19
2019-01-12T01:59:07.797Z,5.25
2019-01-12T02:00:17.729Z,5.22
2019-01-12T02:01:27.697Z,5.22
2019-01-12T02:02:37.640Z,5.26
2019-01-12T02:03:47.600Z,5.23
2019-01-12T02:04:57.540Z,5.15
2019-01-12T02:06:07.236Z,5.16
2019-01-12T02:07:17.172Z,5.16
2019-01-12T02:08:26.866Z,5.18
2019-01-12T02:09:35.799Z,5.13
2019-01-12T02:10:45.729Z,5.15
2019-01-12T02:11:55.676Z,5.13
2019-01-12T02:13:05.387Z,5.07
2019-01-12T02:14:15.080Z,5.16
2019-01-12T02:15:25.026Z,5.16
2019-01-12T02:16:34.968Z,5.18
2019-01-12T02:17:44.656Z,5.15
2019-01-12T02:18:54.382Z,5.16
2019-01-12T02:20:04.332Z,5.12
2019-01-12T02:21:14.275Z,5.19
2019-01-12T02:22:24.256Z,5.01
2019-01-12T02:23:34.188Z,5.05
2019-01-12T02:24:44.120Z,5.05
2019-01-12T02:25:54.051Z,4.98
2019-01-12T02:27:03.549Z,5.05
2019-01-12T02:28:13.482Z,4.98
2019-01-12T02:29:23.433Z,4.97
2019-01-12T02:30:33.363Z,5.04
2019-01-12T02:31:43.307Z,5.01
2019-01-12T02:32:52.998Z,5
2019-01-12T02:34:02.938Z,5.07
2019-01-12T02:35:12.892Z,4.98
2019-01-12T02:36:22.859Z,4.97
2019-01-12T02:37:32.807Z,4.9
2019-01-12T02:38:42.530Z,4.95
2019-01-12T02:39:51.978Z,5.04
2019-01-12T02:41:01.948Z,5.04
2019-01-12T02:42:11.635Z,5.02
2019-01-12T02:43:21.078Z,4.9
2019-01-12T02:44:31.020Z,4.95
2019-01-12T02:45:40.963Z,4.9
2019-01-12T02:46:50.914Z,4.86
2019-01-12T02:48:00.609Z,4.9
2019-01-12T02:49:10.294Z,4.86
2019-01-12T02:50:20.313Z,4.87
2019-01-12T02:51:30.252Z,4.86
2019-01-12T02:52:40.184Z,4.84
2019-01-12T02:53:50.134Z,4.92
2019-01-12T02:55:08.029Z,4.89
2019-01-12T02:56:18.246Z,4.78
2019-01-12T02:57:28.181Z,4.86
2019-01-12T02:58:37.365Z,4.84
2019-01-12T02:59:47.329Z,4.83
2019-01-12T03:00:57.290Z,4.87
2019-01-12T03:02:07.224Z,4.86
2019-01-12T03:03:17.182Z,4.83
2019-01-12T03:04:26.899Z,4.87
2019-01-12T03:05:36.868Z,4.9
2019-01-12T03:06:46.828Z,4.94
2019-01-12T03:07:56.515Z,4.9
2019-01-12T03:09:06.527Z,4.98
2019-01-12T03:10:16.486Z,4.84
2019-01-12T03:11:25.934Z,4.86
2019-01-12T03:12:35.364Z,4.87
2019-01-12T03:13:45.299Z,4.9
2019-01-12T03:14:54.745Z,4.84
2019-01-12T03:16:04.464Z,4.86
2019-01-12T03:17:14.172Z,4.84
2019-01-12T03:18:24.120Z,4.89
2019-01-12T03:19:34.062Z,4.87
2019-01-12T03:20:44.003Z,4.79
2019-01-12T03:21:53.964Z,4.94
2019-01-12T03:23:03.656Z,4.84
2019-01-12T03:24:13.610Z,4.82
2019-01-12T03:25:24.158Z,4.92
2019-01-12T03:26:33.869Z,4.87
2019-01-12T03:27:43.812Z,4.9
2019-01-12T03:28:53.337Z,4.84
2019-01-12T03:30:03.026Z,4.79
2019-01-12T03:31:12.756Z,4.83
2019-01-12T03:32:22.735Z,4.86
2019-01-12T03:33:32.729Z,4.84
2019-01-12T03:34:42.423Z,4.79
2019-01-12T03:35:52.368Z,4.79
2019-01-12T03:37:02.075Z,4.83
2019-01-12T03:38:12.011Z,4.83
2019-01-12T03:39:21.443Z,4.82
2019-01-12T03:40:31.388Z,4.78
2019-01-12T03:41:41.083Z,4.83
2019-01-12T03:42:51.035Z,4.71
2019-01-12T03:44:00.725Z,4.68
2019-01-12T03:45:10.440Z,4.67
2019-01-12T03:46:20.135Z,4.68
2019-01-12T03:47:30.079Z,4.7
2019-01-12T03:48:39.780Z,4.71
2019-01-12T03:49:49.728Z,4.64
2019-01-12T03:50:59.436Z,4.66
2019-01-12T03:52:09.127Z,4.67
2019-01-12T03:53:18.817Z,4.64
2019-01-12T03:54:28.771Z,4.67
2019-01-12T03:55:38.710Z,4.74
2019-01-12T03:56:48.156Z,4.6
2019-01-12T03:57:58.108Z,4.68
2019-01-12T03:59:08.066Z,4.64
2019-01-12T04:00:17.330Z,4.68
2019-01-12T04:01:27.315Z,4.66
2019-01-12T04:02:36.771Z,4.68
2019-01-12T04:03:46.502Z,4.7
2019-01-12T04:04:55.932Z,4.7
2019-01-12T04:06:05.853Z,4.74
2019-01-12T04:07:15.544Z,4.75
2019-01-12T04:08:25.491Z,4.66
2019-01-12T04:09:35.423Z,4.63
2019-01-12T04:10:45.368Z,4.7
2019-01-12T04:11:54.816Z,4.6
2019-01-12T04:13:04.251Z,4.67
2019-01-12T04:14:13.778Z,4.63
2019-01-12T04:15:23.726Z,4.71
2019-01-12T04:16:33.167Z,4.64
2019-01-12T04:17:42.877Z,4.63
2019-01-12T04:18:52.621Z,4.68
2019-01-12T04:20:02.648Z,4.66
2019-01-12T04:21:12.346Z,4.64
2019-01-12T04:22:22.031Z,4.7
2019-01-12T04:23:31.735Z,4.7
2019-01-12T04:24:41.674Z,4.63
2019-01-12T04:25:51.362Z,4.74
2019-01-12T04:27:00.571Z,4.74
2019-01-12T04:28:10.279Z,4.75
2019-01-12T04:29:19.724Z,4.7
2019-01-12T04:30:29.688Z,4.74
2019-01-12T04:31:39.128Z,4.71
2019-01-12T04:32:49.095Z,4.7
2019-01-12T04:33:59.035Z,4.75
2019-01-12T04:35:08.479Z,4.7
2019-01-12T04:36:18.167Z,4.7
2019-01-12T04:37:28.153Z,4.67
2019-01-12T04:38:38.098Z,4.71
2019-01-12T04:39:47.798Z,4.66
2019-01-12T04:40:57.747Z,4.84
2019-01-12T04:42:07.694Z,4.71
2019-01-12T04:43:17.626Z,4.71
2019-01-12T04:44:27.319Z,4.7
2019-01-12T04:45:37.027Z,4.7
2019-01-12T04:46:46.971Z,4.71
2019-01-12T04:47:56.934Z,4.7
2019-01-12T04:49:06.628Z,4.74
2019-01-12T04:50:16.577Z,4.7
2019-01-12T04:51:26.547Z,4.71
2019-01-12T04:52:36.243Z,4.71
2019-01-12T04:53:45.933Z,4.66
2019-01-12T04:54:55.886Z,4.78
2019-01-12T04:56:05.833Z,4.78
2019-01-12T04:57:15.773Z,4.71
2019-01-12T04:58:25.709Z,4.74
2019-01-12T04:59:35.407Z,4.83
2019-01-12T05:00:45.107Z,4.78
2019-01-12T05:01:54.799Z,4.9
2019-01-12T05:03:04.245Z,4.83
2019-01-12T05:04:14.190Z,4.79
2019-01-12T05:05:24.144Z,4.84
2019-01-12T05:06:33.578Z,4.92
2019-01-12T05:07:43.008Z,4.75
2019-01-12T05:08:52.733Z,4.83
2019-01-12T05:10:02.430Z,4.78
2019-01-12T05:11:12.129Z,4.83
2019-01-12T05:12:21.819Z,4.86
2019-01-12T05:13:31.759Z,4.86
2019-01-12T05:14:41.454Z,4.86
2019-01-12T05:15:51.137Z,4.82
2019-01-12T05:17:01.076Z,4.84
2019-01-12T05:18:10.776Z,5
2019-01-12T05:19:20.720Z,4.94
2019-01-12T05:20:30.682Z,5
2019-01-12T05:21:41.075Z,4.98
2019-01-12T05:22:50.543Z,5
2019-01-12T05:24:00.488Z,5.04
2019-01-12T05:25:10.443Z,5.08
2019-01-12T05:26:20.385Z,5
2019-01-12T05:27:30.343Z,5.01
2019-01-12T05:28:40.312Z,5.02
2019-01-12T05:29:50.249Z,5.01
2019-01-12T05:31:00.201Z,4.95
2019-01-12T05:32:10.157Z,5.02
2019-01-12T05:33:20.102Z,5.07
2019-01-12T05:34:29.783Z,5.05
2019-01-12T05:35:39.737Z,5.07
2019-01-12T05:36:49.683Z,5.05
2019-01-12T05:37:59.623Z,5.05
2019-01-12T05:39:09.322Z,5.07
2019-01-12T05:40:19.244Z,5.08
2019-01-12T05:41:28.945Z,5.15
2019-01-12T05:42:38.893Z,5.1
2019-01-12T05:43:48.580Z,5.01
2019-01-12T05:44:58.533Z,5.16
2019-01-12T05:46:08.465Z,5.07
2019-01-12T05:47:18.416Z,5.13
2019-01-12T05:48:28.116Z,5.08
2019-01-12T05:49:38.071Z,5.19
2019-01-12T05:50:48.063Z,5.15
2019-01-12T05:51:57.779Z,5.13
2019-01-12T05:53:07.717Z,5.15
2019-01-12T05:54:17.399Z,5.13
2019-01-12T05:55:27.339Z,5.15
2019-01-12T05:56:37.359Z,5.16
2019-01-12T05:57:46.833Z,5.15
2019-01-12T05:58:56.769Z,5.07
2019-01-12T06:00:06.453Z,5.05
2019-01-12T06:01:16.149Z,5.18
2019-01-12T06:02:26.106Z,5.15
2019-01-12T06:03:36.040Z,5.16
2019-01-12T06:04:45.971Z,5.22
2019-01-12T06:05:55.906Z,5.15
2019-01-12T06:07:05.532Z,5.13
2019-01-12T06:08:15.484Z,5.18
2019-01-12T06:09:25.182Z,5.07
2019-01-12T06:10:35.134Z,5.13
2019-01-12T06:11:44.835Z,5.13
2019-01-12T06:12:54.779Z,5.2
2019-01-12T06:14:04.473Z,5.18
2019-01-12T06:15:14.411Z,5.18
2019-01-12T06:16:24.356Z,5.15
2019-01-12T06:17:34.296Z,5.13
2019-01-12T06:18:44.243Z,5.2
2019-01-12T06:19:54.188Z,5.13
2019-01-12T06:21:04.119Z,5.13
2019-01-12T06:22:13.809Z,5.13
2019-01-12T06:23:23.742Z,5.15
2019-01-12T06:24:33.181Z,5.18
2019-01-12T06:25:43.117Z,5.19
2019-01-12T06:26:53.073Z,5.22
2019-01-12T06:28:03.020Z,5.15
2019-01-12T06:29:12.972Z,5.22
2019-01-12T06:30:22.415Z,5.22
2019-01-12T06:31:31.846Z,5.19
2019-01-12T06:32:41.289Z,5.19
2019-01-12T06:33:51.233Z,5.23
2019-01-12T06:35:00.917Z,5.18
2019-01-12T06:36:10.632Z,5.22
2019-01-12T06:37:20.587Z,5.13
2019-01-12T06:38:30.555Z,5.19
2019-01-12T06:39:40.510Z,5.15
2019-01-12T06:40:50.215Z,5.15
2019-01-12T06:41:59.662Z,5.15
2019-01-12T06:43:09.369Z,5.16
2019-01-12T06:44:18.804Z,5.15
2019-01-12T06:45:28.755Z,5.23
2019-01-12T06:46:38.447Z,5.18
2019-01-12T06:47:48.414Z,5.2
2019-01-12T06:48:58.353Z,5.13
2019-01-12T06:50:08.296Z,5.15
2019-01-12T06:51:17.987Z,5.16
2019-01-12T06:52:27.674Z,5.08
2019-01-12T06:53:37.367Z,5.13
2019-01-12T06:54:47.356Z,5.18
2019-01-12T06:55:57.048Z,5.15
2019-01-12T06:57:06.978Z,5.18
2019-01-12T06:58:16.675Z,5.19
2019-01-12T06:59:26.416Z,5.15
2019-01-12T07:00:36.365Z,5.23
2019-01-12T07:01:45.550Z,5.33
2019-01-12T07:02:55.477Z,5.19
2019-01-12T07:04:05.172Z,5.25
2019-01-12T07:05:15.127Z,5.23
2019-01-12T07:06:25.055Z,5.22
2019-01-12T07:07:35.005Z,5.22
2019-01-12T07:08:44.948Z,5.22
2019-01-12T07:09:54.902Z,5.25
2019-01-12T07:11:04.845Z,5.23
2019-01-12T07:12:14.292Z,5.25
2019-01-12T07:13:23.970Z,5.25
2019-01-12T07:14:33.931Z,5.19
2019-01-12T07:15:43.862Z,5.25
2019-01-12T07:16:53.792Z,5.23
2019-01-12T07:18:08.815Z,5.26
2019-01-12T07:19:18.616Z,5.16
2019-01-12T07:20:28.304Z,5.19
2019-01-12T07:21:38.265Z,5.23
2019-01-12T07:22:48.833Z,5.22
2019-01-12T07:23:58.762Z,5.2
2019-01-12T07:25:08.701Z,5.15
2019-01-12T07:26:22.382Z,5.23
2019-01-12T07:27:31.826Z,5.26
2019-01-12T07:28:41.528Z,5.22
2019-01-12T07:29:51.229Z,5.19
2019-01-12T07:31:01.168Z,5.26
2019-01-12T07:32:10.860Z,5.22
2019-01-12T07:33:20.544Z,5.25
2019-01-12T07:34:30.482Z,5.19
2019-01-12T07:35:39.918Z,5.2
2019-01-12T07:36:49.348Z,5.23
2019-01-12T07:37:59.282Z,5.26
2019-01-12T07:39:08.980Z,5.25
2019-01-12T07:40:18.678Z,5.26
2019-01-12T07:41:28.626Z,5.23
2019-01-12T07:42:38.568Z,5.2
2019-01-12T07:43:48.500Z,5.29
2019-01-12T07:44:58.440Z,5.28
2019-01-12T07:46:08.375Z,5.28
2019-01-12T07:47:17.565Z,5.31
2019-01-12T07:48:27.503Z,5.2
2019-01-12T07:49:37.192Z,5.22
2019-01-12T07:50:47.121Z,5.25
2019-01-12T07:51:57.071Z,5.18
2019-01-12T07:53:06.760Z,5.12
2019-01-12T07:54:16.693Z,5.02
2019-01-12T07:55:26.634Z,5.08
2019-01-12T07:56:36.333Z,5.05
2019-01-12T07:57:46.269Z,4.95
2019-01-12T07:58:55.945Z,4.9
2019-01-12T08:00:07.059Z,4.95
2019-01-12T08:01:16.742Z,4.82
2019-01-12T08:02:26.722Z,4.82
2019-01-12T08:03:35.920Z,4.86
2019-01-12T08:04:45.854Z,4.84
2019-01-12T08:05:55.530Z,4.78
2019-01-12T08:07:05.218Z,4.83
2019-01-12T08:08:14.916Z,4.82
2019-01-12T08:09:24.866Z,4.74
2019-01-12T08:10:34.805Z,4.92
2019-01-12T08:11:44.764Z,4.87
2019-01-12T08:12:54.689Z,4.86
2019-01-12T08:14:04.369Z,4.82
2019-01-12T08:15:14.319Z,4.83
2019-01-12T08:16:24.247Z,4.9
2019-01-12T08:17:33.686Z,4.97
2019-01-12T08:18:43.641Z,4.98
2019-01-12T08:19:53.334Z,5.05
2019-01-12T08:21:03.033Z,5.01
2019-01-12T08:22:12.980Z,5.07
2019-01-12T08:23:22.667Z,5.04
2019-01-12T08:24:32.352Z,5.05
2019-01-12T08:25:41.800Z,5.08
2019-01-12T08:26:51.479Z,5.15
2019-01-12T08:28:01.176Z,5.13
2019-01-12T08:29:11.110Z,5.04
2019-01-12T08:30:21.054Z,5.18
2019-01-12T08:31:30.996Z,5.12
2019-01-12T08:32:40.687Z,5.1
2019-01-12T08:33:50.390Z,5.08
2019-01-12T08:35:00.352Z,5.1
2019-01-12T08:36:10.326Z,5.15
2019-01-12T08:37:20.277Z,5.19
2019-01-12T08:38:29.709Z,5.22
2019-01-12T08:39:39.150Z,5.22
2019-01-12T08:40:48.842Z,5.22
2019-01-12T08:41:58.542Z,5.23
2019-01-12T08:43:08.481Z,5.13
2019-01-12T08:44:18.417Z,5.22
2019-01-12T08:45:28.369Z,5.25
2019-01-12T08:46:38.310Z,5.25
2019-01-12T08:47:48.245Z,5.25
2019-01-12T08:48:58.255Z,5.2
2019-01-12T08:50:08.208Z,5.26
2019-01-12T08:51:17.901Z,5.15
2019-01-12T08:52:27.840Z,5.12
2019-01-12T08:53:37.840Z,5.22
2019-01-12T08:54:47.796Z,5.19
2019-01-12T08:55:57.488Z,5.22
2019-01-12T08:57:07.438Z,5.25
2019-01-12T08:58:17.378Z,5.23
2019-01-12T08:59:27.082Z,5.16
2019-01-12T09:00:37.032Z,5.25
2019-01-12T09:01:46.984Z,5.15
2019-01-12T09:02:56.925Z,5.22
2019-01-12T09:04:06.862Z,5.22
2019-01-12T09:05:16.546Z,5.15
2019-01-12T09:06:26.502Z,5.15
2019-01-12T09:07:36.206Z,5.13
2019-01-12T09:08:46.166Z,5.16
2019-01-12T09:09:55.606Z,5.12
2019-01-12T09:11:05.553Z,5.02
2019-01-12T09:12:15.496Z,5.02
2019-01-12T09:13:25.438Z,5
2019-01-12T09:14:35.392Z,5.04
2019-01-12T09:15:45.105Z,5
2019-01-12T09:16:55.058Z,4.94
2019-01-12T09:18:04.740Z,4.95
2019-01-12T09:19:14.710Z,4.95
2019-01-12T09:20:24.659Z,5
2019-01-12T09:21:34.599Z,4.95
2019-01-12T09:22:44.547Z,4.98
2019-01-12T09:23:54.499Z,5.01
2019-01-12T09:25:04.451Z,5.02
2019-01-12T09:26:14.138Z,4.95
2019-01-12T09:27:24.082Z,4.98
2019-01-12T09:28:33.282Z,5
2019-01-12T09:29:42.985Z,5
2019-01-12T09:30:53.494Z,5.04
2019-01-12T09:32:03.492Z,5.01
2019-01-12T09:33:14.135Z,4.97
2019-01-12T09:34:23.820Z,5.02
2019-01-12T09:35:33.791Z,5
2019-01-12T09:36:43.473Z,5.05
2019-01-12T09:37:53.164Z,5.16
2019-01-12T09:39:02.917Z,5.1
2019-01-12T09:40:12.867Z,5.16
2019-01-12T09:41:22.818Z,5.16
2019-01-12T09:42:32.508Z,5.18
2019-01-12T09:43:42.192Z,5.18
2019-01-12T09:44:52.118Z,5.2
2019-01-12T09:46:02.078Z,5.19
2019-01-12T09:47:13.063Z,5.28
2019-01-12T09:48:23.136Z,5.15
2019-01-12T09:49:33.084Z,5.28
2019-01-12T09:50:43.029Z,5.31
2019-01-12T09:51:52.982Z,5.31
2019-01-12T09:53:02.674Z,5.4
2019-01-12T09:54:12.362Z,5.4
2019-01-12T09:55:22.344Z,5.37
2019-01-12T09:56:32.277Z,5.37
2019-01-12T09:57:41.963Z,5.4
2019-01-12T09:58:51.649Z,5.47
2019-01-12T10:00:01.347Z,5.59
2019-01-12T10:01:11.305Z,5.52
2019-01-12T10:02:21.024Z,5.62
2019-01-12T10:03:30.960Z,5.69
2019-01-12T10:04:40.783Z,5.64
2019-01-12T10:05:50.725Z,5.65
2019-01-12T10:07:00.404Z,5.74
2019-01-12T10:08:10.106Z,5.77
2019-01-12T10:09:19.809Z,5.76
2019-01-12T10:10:29.756Z,5.87
2019-01-12T10:11:39.721Z,5.88
2019-01-12T10:12:49.667Z,5.88
2019-01-12T10:13:59.381Z,5.94
2019-01-12T10:15:09.061Z,5.95
2019-01-12T10:16:18.743Z,6.05
2019-01-12T10:17:28.707Z,6.06
2019-01-12T10:18:38.643Z,6.02
2019-01-12T10:19:48.590Z,6.13
2019-01-12T10:20:58.558Z,6.12
2019-01-12T10:22:08.525Z,6.13
2019-01-12T10:23:17.956Z,6.12
2019-01-12T10:24:27.686Z,6.13
2019-01-12T10:25:37.386Z,6.15
2019-01-12T10:26:47.078Z,6.13
2019-01-12T10:28:03.549Z,6.2
2019-01-12T10:29:14.001Z,6.16
2019-01-12T10:30:23.685Z,6.26
2019-01-12T10:31:33.641Z,6.2
2019-01-12T10:32:43.340Z,6.28
2019-01-12T10:33:53.034Z,6.25
2019-01-12T10:35:02.995Z,6.15
2019-01-12T10:36:12.444Z,6.12
2019-01-12T10:37:22.372Z,6.2
2019-01-12T10:38:31.809Z,6.15
2019-01-12T10:39:41.574Z,6.16
2019-01-12T10:40:51.520Z,6.16
2019-01-12T10:42:01.459Z,6.13
2019-01-12T10:43:11.411Z,6.1
2019-01-12T10:44:21.353Z,6.17
2019-01-12T10:45:31.296Z,6.22
2019-01-12T10:46:41.242Z,6.07
2019-01-12T10:47:51.210Z,6.1
2019-01-12T10:49:01.166Z,5.99
2019-01-12T10:50:11.125Z,5.99
2019-01-12T10:51:20.572Z,5.98
2019-01-12T10:52:30.262Z,6.06
2019-01-12T10:53:39.979Z,5.99
2019-01-12T10:54:49.922Z,6.13
2019-01-12T10:55:59.632Z,5.99
2019-01-12T10:57:10.508Z,5.98
2019-01-12T10:58:20.200Z,6.09
2019-01-12T10:59:29.651Z,6.09
2019-01-12T11:00:39.693Z,6.1
2019-01-12T11:01:49.633Z,6.06
2019-01-12T11:02:59.366Z,6.06
2019-01-12T11:04:09.315Z,6.13
2019-01-12T11:05:19.278Z,6.09
2019-01-12T11:06:29.225Z,6.07
2019-01-12T11:07:39.916Z,6.17
2019-01-12T11:08:49.935Z,6.17
2019-01-12T11:10:06.679Z,6.17
2019-01-12T11:11:16.635Z,6.13
2019-01-12T11:12:26.574Z,6.17
2019-01-12T11:13:36.535Z,6.13
2019-01-12T11:14:46.218Z,6.17
2019-01-12T11:15:56.161Z,6.13
2019-01-12T11:17:05.622Z,6.15
2019-01-12T11:18:15.571Z,6.12
2019-01-12T11:19:25.275Z,6.19
2019-01-12T11:20:34.992Z,6.12
2019-01-12T11:21:44.690Z,6.19
2019-01-12T11:22:54.882Z,6.12
2019-01-12T11:24:04.306Z,6.15
2019-01-12T11:25:14.266Z,6.17
2019-01-12T11:26:23.706Z,6.15
2019-01-12T11:27:33.400Z,6.13
2019-01-12T11:28:43.344Z,6.12
2019-01-12T11:29:53.054Z,6.22
2019-01-12T11:31:03.052Z,6.15
2019-01-12T11:32:13.023Z,6.2
2019-01-12T11:33:22.720Z,6.2
2019-01-12T11:34:32.673Z,6.29
2019-01-12T11:35:42.774Z,6.28
2019-01-12T11:36:52.222Z,6.29
2019-01-12T11:38:01.914Z,6.35
2019-01-12T11:39:11.603Z,6.38
2019-01-12T11:40:21.570Z,6.34
2019-01-12T11:41:31.526Z,6.22
2019-01-12T11:42:41.475Z,6.28
2019-01-12T11:43:51.169Z,6.39
2019-01-12T11:45:01.119Z,6.43
2019-01-12T11:46:11.063Z,6.26
2019-01-12T11:47:21.024Z,6.31
2019-01-12T11:48:30.970Z,6.38
2019-01-12T11:49:40.959Z,6.31
2019-01-12T11:50:50.647Z,6.38
2019-01-12T11:52:00.092Z,6.36
2019-01-12T11:53:09.790Z,6.39
2019-01-12T11:54:19.746Z,6.36
2019-01-12T11:55:29.435Z,6.34
2019-01-12T11:56:39.415Z,6.35
2019-01-12T11:57:49.371Z,6.29
2019-01-12T11:58:59.320Z,6.29
2019-01-12T12:00:09.029Z,6.28
2019-01-12T12:01:18.969Z,6.17
2019-01-12T12:02:28.907Z,6.12
2019-01-12T12:03:44.812Z,6.15
2019-01-12T12:04:54.529Z,6.13
2019-01-12T12:06:04.491Z,6.02
2019-01-12T12:07:14.455Z,6.13
2019-01-12T12:08:24.457Z,5.99
2019-01-12T12:09:34.401Z,5.97
2019-01-12T12:10:44.356Z,5.98
2019-01-12T12:11:54.306Z,5.97
2019-01-12T12:13:04.247Z,5.94
2019-01-12T12:14:14.212Z,5.97
2019-01-12T12:15:24.158Z,5.97
2019-01-12T12:16:33.855Z,5.95
2019-01-12T12:17:43.547Z,6.05
2019-01-12T12:18:53.499Z,5.98
2019-01-12T12:20:03.459Z,5.99
2019-01-12T12:21:13.413Z,6.12
2019-01-12T12:22:23.094Z,6.07
2019-01-12T12:23:33.031Z,6.16
2019-01-12T12:24:42.969Z,6.13
2019-01-12T12:25:52.404Z,6.13
2019-01-12T12:27:02.358Z,6.22
2019-01-12T12:28:12.785Z,6.15
2019-01-12T12:29:22.530Z,6.15
2019-01-12T12:30:32.489Z,6.17
2019-01-12T12:31:42.428Z,6.28
2019-01-12T12:32:52.216Z,6.25
2019-01-12T12:34:01.909Z,6.29
2019-01-12T12:35:11.601Z,6.29
2019-01-12T12:36:21.543Z,6.26
2019-01-12T12:37:31.491Z,6.31
2019-01-12T12:38:40.935Z,6.28
2019-01-12T12:39:50.889Z,6.25
2019-01-12T12:41:00.584Z,6.29
2019-01-12T12:42:10.540Z,6.31
2019-01-12T12:43:20.236Z,6.32
2019-01-12T12:44:29.929Z,6.26
2019-01-12T12:45:39.909Z,6.29
2019-01-12T12:46:49.874Z,6.28
2019-01-12T12:47:59.579Z,6.22
2019-01-12T12:49:09.379Z,6.25
2019-01-12T12:50:19.086Z,6.35
2019-01-12T12:51:29.090Z,6.34
2019-01-12T12:52:38.547Z,6.36
2019-01-12T12:53:48.009Z,6.35
2019-01-12T12:54:57.951Z,6.35
2019-01-12T12:56:07.895Z,6.39
2019-01-12T12:57:17.847Z,6.36
2019-01-12T12:58:27.780Z,6.46
2019-01-12T12:59:37.749Z,6.39
2019-01-12T13:00:47.745Z,6.39
2019-01-12T13:01:57.443Z,6.35
2019-01-12T13:03:07.419Z,6.46
2019-01-12T13:04:17.115Z,6.54
2019-01-12T13:05:27.068Z,6.49
2019-01-12T13:06:36.757Z,6.5
2019-01-12T13:07:46.218Z,6.52
2019-01-12T13:08:56.172Z,6.5
2019-01-12T13:10:06.126Z,6.6
2019-01-12T13:11:15.806Z,6.52
2019-01-12T13:12:25.748Z,6.49
2019-01-12T13:13:35.701Z,6.53
2019-01-12T13:14:45.651Z,6.53
2019-01-12T13:15:55.083Z,6.56
2019-01-12T13:17:05.042Z,6.53
2019-01-12T13:18:15.000Z,6.54
2019-01-12T13:19:24.458Z,6.52
2019-01-12T13:20:33.955Z,6.49
2019-01-12T13:21:43.910Z,6.5
2019-01-12T13:22:54.321Z,6.53
2019-01-12T13:24:04.278Z,6.49
2019-01-12T13:25:13.978Z,6.56
2019-01-12T13:26:23.673Z,6.52
2019-01-12T13:27:39.648Z,6.54
2019-01-12T13:28:49.929Z,6.53
2019-01-12T13:29:59.643Z,6.47
2019-01-12T13:31:09.583Z,6.5
2019-01-12T13:32:18.791Z,6.56
2019-01-12T13:33:28.746Z,6.52
2019-01-12T13:34:38.207Z,6.44
2019-01-12T13:35:48.115Z,6.53
2019-01-12T13:36:57.596Z,6.5
2019-01-12T13:38:07.570Z,6.5
2019-01-12T13:39:17.014Z,6.54
2019-01-12T13:40:26.733Z,6.5
2019-01-12T13:41:36.707Z,6.53
2019-01-12T13:42:46.148Z,6.47
2019-01-12T13:43:56.115Z,6.53
2019-01-12T13:45:06.076Z,6.49
2019-01-12T13:46:15.272Z,6.34
2019-01-12T13:47:25.906Z,6.44
2019-01-12T13:48:35.356Z,6.39
2019-01-12T13:49:45.328Z,6.36
2019-01-12T13:50:55.713Z,6.49
2019-01-12T13:52:05.670Z,6.41
2019-01-12T13:53:15.357Z,6.36
2019-01-12T13:54:25.896Z,6.39
2019-01-12T13:55:35.938Z,6.26
2019-01-12T13:56:45.885Z,6.35
2019-01-12T13:57:55.581Z,6.31
2019-01-12T13:59:05.558Z,6.26
2019-01-12T14:00:15.507Z,6.28
2019-01-12T14:01:25.454Z,6.28
2019-01-12T14:02:34.895Z,6.15
2019-01-12T14:03:44.613Z,6.15
2019-01-12T14:04:54.556Z,6.1
2019-01-12T14:06:04.261Z,5.98
2019-01-12T14:07:13.980Z,5.95
2019-01-12T14:08:24.009Z,6.01
2019-01-12T14:09:33.977Z,5.94
2019-01-12T14:10:43.663Z,5.97
2019-01-12T14:11:53.615Z,5.94
2019-01-12T14:13:03.568Z,5.94
2019-01-12T14:14:13.521Z,5.97
2019-01-12T14:15:23.468Z,5.95
2019-01-12T14:16:33.413Z,5.88
2019-01-12T14:17:43.345Z,5.84
2019-01-12T14:18:53.300Z,5.87
2019-01-12T14:20:03.243Z,5.88
2019-01-12T14:21:12.938Z,5.76
2019-01-12T14:22:22.907Z,5.72
2019-01-12T14:23:32.908Z,5.72
2019-01-12T14:24:42.615Z,5.69
2019-01-12T14:25:52.569Z,5.64
2019-01-12T14:27:02.318Z,5.7
2019-01-12T14:28:12.040Z,5.62
2019-01-12T14:29:21.984Z,5.62
2019-01-12T14:30:31.675Z,5.58
2019-01-12T14:31:41.374Z,5.56
2019-01-12T14:32:51.329Z,5.51
2019-01-12T14:34:01.281Z,5.41
2019-01-12T14:35:11.224Z,5.41
2019-01-12T14:36:21.167Z,5.49
2019-01-12T14:37:31.121Z,5.47
2019-01-12T14:38:41.076Z,5.33
2019-01-12T14:39:50.770Z,5.37
2019-01-12T14:41:00.470Z,5.37
2019-01-12T14:42:10.440Z,5.36
2019-01-12T14:43:20.361Z,5.38
2019-01-12T14:44:30.061Z,5.36
2019-01-12T14:45:39.517Z,5.28
2019-01-12T14:46:49.467Z,5.23
2019-01-12T14:47:59.420Z,5.31
2019-01-12T14:49:09.439Z,5.22
2019-01-12T14:50:19.125Z,5.22
2019-01-12T14:51:29.100Z,5.2
2019-01-12T14:52:39.066Z,5.18
2019-01-12T14:53:49.003Z,5.2
2019-01-12T14:54:58.961Z,5.2
2019-01-12T14:56:08.907Z,5.16
2019-01-12T14:57:18.393Z,5.2
2019-01-12T14:58:28.345Z,5.2
2019-01-12T14:59:38.342Z,5.18
2019-01-12T15:00:48.127Z,5.16
2019-01-12T15:01:57.874Z,5.18
2019-01-12T15:03:07.629Z,5.23
2019-01-12T15:04:17.632Z,5.16
2019-01-12T15:05:27.466Z,5.12
2019-01-12T15:06:37.637Z,5.15
2019-01-12T15:07:47.421Z,5.1
2019-01-12T15:08:57.376Z,5.02
2019-01-12T15:10:07.341Z,5.07
2019-01-12T15:11:17.045Z,5.08
2019-01-12T15:12:26.781Z,5.05
2019-01-12T15:13:36.503Z,5.02
2019-01-12T15:14:46.239Z,5
2019-01-12T15:15:55.696Z,5.01
2019-01-12T15:17:05.642Z,5.04
2019-01-12T15:18:16.889Z,5.04
2019-01-12T15:19:26.859Z,5.02
2019-01-12T15:20:36.852Z,5.01
2019-01-12T15:21:46.798Z,5.07
2019-01-12T15:22:56.754Z,5.01
2019-01-12T15:24:06.693Z,5.04
2019-01-12T15:25:17.844Z,5.02
2019-01-12T15:26:27.538Z,4.95
2019-01-12T15:27:36.732Z,5.02
2019-01-12T15:28:46.675Z,4.94
2019-01-12T15:29:56.624Z,4.97
2019-01-12T15:31:06.618Z,5.02
2019-01-12T15:32:16.308Z,5
2019-01-12T15:33:26.259Z,5
2019-01-12T15:34:35.944Z,4.98